Time;durP1;ratioP1;P1;durP2;ratioP2;P2;SDS_P1;SDS_P2;PMS_P1;PMS_P2;Temp;Humidity;BMP_temperature;BMP_pressure;BME280_temperature;BME280_humidity;BME280_pressure;Samples;Min_cycle;Max_cycle;Signal;HPM_P1;HPM_P2
2022/08/05 00:01:32;;;;;;;6.25;4.45;;;;;;;23.79;51.08;99889.63;4486354;31;33158;-76
2022/08/05 00:04:18;;;;;;;5.75;4.28;;;;;;;23.21;53.42;99889.09;4496611;31;32595;-77
2022/08/05 00:06:46;;;;;;;7.25;3.72;;;;;;;22.45;55.98;99892.88;4496443;31;33006;-76
2022/08/05 00:09:18;;;;;;;5.82;4.18;;;;;;;22.96;51.85;99880.38;4501246;31;34049;-77
2022/08/05 00:11:47;;;;;;;7.53;4.20;;;;;;;23.32;50.57;99889.03;4500269;31;34495;-75
2022/08/05 00:14:26;;;;;;;6.22;4.55;;;;;;;23.39;52.03;99889.88;4489508;31;34278;-76
2022/08/05 00:16:57;;;;;;;11.77;4.72;;;;;;;23.73;50.94;99882.59;4485708;31;33865;-75
2022/08/05 00:19:28;;;;;;;8.48;4.30;;;;;;;23.25;52.45;99884.66;4485358;31;33268;-76
2022/08/05 00:22:07;;;;;;;6.22;5.07;;;;;;;23.53;50.32;99890.69;4492859;31;33785;-76
2022/08/05 00:24:38;;;;;;;5.87;4.20;;;;;;;22.64;55.56;99884.03;4501241;31;33709;-76
2022/08/05 00:27:09;;;;;;;7.47;3.60;;;;;;;23.38;52.64;99882.84;4491664;31;34590;-77
2022/08/05 00:29:55;;;;;;;6.18;3.90;;;;;;;24.02;50.18;99879.72;4492914;31;33409;-77
2022/08/05 00:32:22;;;;;;;8.38;4.32;;;;;;;24.22;49.56;99878.66;4499653;31;33877;-77
2022/08/05 00:34:52;;;;;;;5.37;3.85;;;;;;;23.44;51.68;99882.78;4490573;31;35287;-76
2022/08/05 00:37:34;;;;;;;5.75;4.18;;;;;;;23.55;51.36;99887.13;4490386;31;34581;-78
2022/08/05 00:40:23;;;;;;;8.27;3.60;;;;;;;23.70;49.37;99880.84;4489785;31;33315;-76
2022/08/05 00:42:59;;;;;;;7.65;3.62;;;;;;;22.78;50.99;99886.63;4498612;31;34705;-77
2022/08/05 00:45:27;;;;;;;5.78;3.45;;;;;;;23.56;48.53;99877.41;4492113;31;33981;-76
2022/08/05 00:48:14;;;;;;;6.12;3.37;;;;;;;22.84;51.10;99883.94;4486158;31;33692;-77
2022/08/05 00:50:44;;;;;;;5.22;3.40;;;;;;;23.27;48.26;99878.47;4497697;31;33530;-77
2022/08/05 00:53:15;;;;;;;4.22;3.05;;;;;;;23.84;46.15;99883.41;4500760;31;33906;-78
2022/08/05 00:56:04;;;;;;;5.93;3.92;;;;;;;24.17;45.37;99875.19;4496649;31;34579;-77
2022/08/05 00:58:35;;;;;;;6.00;3.30;;;;;;;23.13;49.56;99878.56;4501184;31;34460;-77
2022/08/05 01:01:03;;;;;;;5.00;3.33;;;;;;;23.68;47.72;99877.34;4491756;31;34049;-77
2022/08/05 01:03:36;;;;;;;6.10;3.30;;;;;;;23.29;47.37;99874.06;4499287;31;33911;-76
2022/08/05 01:06:04;;;;;;;6.00;3.28;;;;;;;22.82;49.37;99866.34;4497370;31;34763;-77
2022/08/05 01:08:37;;;;;;;8.50;3.67;;;;;;;22.66;49.19;99865.53;4489418;31;32563;-77
2022/08/05 01:11:27;;;;;;;5.05;3.50;;;;;;;22.64;49.30;99868.19;4489400;31;33717;-76
2022/08/05 01:14:22;;;;;;;8.25;3.97;;;;;;;23.41;48.58;99870.47;4497973;31;33450;-76
2022/08/05 01:17:36;;;;;;;5.43;3.05;;;;;;;22.47;52.97;99870.00;4500824;31;33811;-75
2022/08/05 01:20:29;;;;;;;9.02;3.45;;;;;;;23.36;47.90;99870.50;4490860;31;34010;-76
2022/08/05 01:23:34;;;;;;;5.30;3.12;;;;;;;23.48;49.29;99872.19;4498944;31;33291;-77
2022/08/05 01:26:17;;;;;;;5.03;3.12;;;;;;;22.51;49.40;99869.09;4492345;31;33911;-77
2022/08/05 01:28:46;;;;;;;6.32;3.67;;;;;;;23.57;47.87;99873.03;4494051;31;34081;-77
2022/08/05 01:31:26;;;;;;;5.22;2.97;;;;;;;22.71;49.35;99869.03;4487412;31;34585;-77
2022/08/05 01:34:22;;;;;;;4.85;3.03;;;;;;;22.79;49.64;99867.22;4487839;31;33315;-77
2022/08/05 01:37:32;;;;;;;7.15;3.97;;;;;;;23.73;48.04;99870.22;4485274;31;33904;-76
2022/08/05 01:40:04;;;;;;;6.43;3.95;;;;;;;22.81;51.54;99880.44;4475991;31;34573;-77
2022/08/05 01:42:33;;;;;;;4.90;3.45;;;;;;;23.36;49.94;99875.78;4494389;31;34446;-76
2022/08/05 01:45:01;;;;;;;6.57;3.60;;;;;;;23.54;48.89;99876.56;4485592;31;34113;-76
2022/08/05 01:47:31;;;;;;;5.35;3.53;;;;;;;22.21;52.50;99878.78;4485094;31;33786;-77
2022/08/05 01:50:30;;;;;;;5.95;3.83;;;;;;;22.60;50.32;99876.09;4486008;31;34692;-76
2022/08/05 01:53:03;;;;;;;7.03;3.70;;;;;;;22.87;48.92;99881.31;4494287;31;33458;-77
2022/08/05 01:55:32;;;;;;;5.22;3.60;;;;;;;22.67;49.74;99878.72;4491065;31;34153;-76
2022/08/05 01:58:06;;;;;;;7.22;3.53;;;;;;;22.85;50.09;99877.78;4498287;31;33884;-76
2022/08/05 02:00:49;;;;;;;8.73;3.25;;;;;;;21.79;54.59;99885.88;4494802;31;33921;-77
2022/08/05 02:03:26;;;;;;;8.50;3.30;;;;;;;22.91;48.13;99872.47;4495140;31;33993;-77
2022/08/05 02:06:00;;;;;;;7.87;3.95;;;;;;;23.48;47.89;99873.94;4494210;31;33938;-77
2022/08/05 02:08:39;;;;;;;6.25;3.85;;;;;;;22.57;52.39;99869.06;4489149;31;32481;-77
2022/08/05 02:11:26;;;;;;;5.62;4.15;;;;;;;22.26;53.45;99870.91;4484919;31;33738;-77
2022/08/05 02:14:11;;;;;;;5.82;3.60;;;;;;;22.23;54.02;99870.87;4488875;31;33646;-75
2022/08/05 02:16:51;;;;;;;6.72;3.85;;;;;;;22.21;52.38;99872.66;4482033;31;31519;-76
2022/08/05 02:19:44;;;;;;;5.95;3.55;;;;;;;22.71;51.68;99869.91;4484635;32;33874;-76
2022/08/05 02:22:28;;;;;;;6.10;3.58;;;;;;;22.51;51.62;99872.63;4497416;31;33484;-76
2022/08/05 02:25:05;;;;;;;5.65;3.30;;;;;;;22.87;50.73;99870.75;4497982;31;34475;-75
2022/08/05 02:27:36;;;;;;;6.15;3.70;;;;;;;22.41;51.79;99876.16;4483115;31;34087;-74
2022/08/05 02:30:25;;;;;;;6.28;3.50;;;;;;;22.11;53.39;99867.38;4490657;31;33904;-75
2022/08/05 02:32:54;;;;;;;9.25;4.32;;;;;;;22.94;51.12;99867.16;4486260;31;34544;-76
2022/08/05 02:35:25;;;;;;;6.35;3.97;;;;;;;22.42;53.57;99872.63;4494687;31;34600;-75
2022/08/05 02:37:59;;;;;;;6.40;4.75;;;;;;;22.85;52.42;99869.88;4493922;31;34125;-76
2022/08/05 02:40:29;;;;;;;6.50;3.95;;;;;;;22.46;54.25;99869.09;4500756;31;34014;-75
2022/08/05 02:42:57;;;;;;;6.50;4.22;;;;;;;23.15;51.92;99865.34;4493637;31;33909;-74
2022/08/05 02:45:26;;;;;;;5.87;4.03;;;;;;;23.14;52.36;99863.56;4487168;31;34306;-76
2022/08/05 02:48:15;;;;;;;16.35;4.80;;;;;;;23.02;52.82;99863.63;4490264;31;33159;-76
2022/08/05 02:50:46;;;;;;;7.93;4.68;;;;;;;22.86;53.95;99863.69;4491603;31;34758;-75
2022/08/05 02:53:17;;;;;;;7.20;4.57;;;;;;;22.67;54.63;99862.00;4480198;32;34005;-76
2022/08/05 02:55:46;;;;;;;8.68;4.90;;;;;;;22.61;55.07;99862.03;4484345;31;32562;-77
2022/08/05 02:58:27;;;;;;;7.80;4.35;;;;;;;22.54;55.56;99859.41;4490950;31;33635;-76
2022/08/05 03:01:00;;;;;;;7.85;4.32;;;;;;;22.50;55.79;99868.22;4499905;31;34323;-75
2022/08/05 03:03:29;;;;;;;5.70;3.65;;;;;;;22.54;55.51;99861.16;4499227;31;33860;-75
2022/08/05 03:06:01;;;;;;;8.32;4.35;;;;;;;22.82;54.33;99867.22;4491114;31;34542;-75
2022/08/05 03:08:50;;;;;;;6.53;3.90;;;;;;;23.04;53.54;99861.88;4475584;31;33418;-75
2022/08/05 03:11:23;;;;;;;7.72;4.55;;;;;;;23.00;53.13;99855.69;4490215;31;34510;-75
2022/08/05 03:14:11;;;;;;;6.75;4.30;;;;;;;22.97;53.32;99851.31;4492619;31;34699;-75
2022/08/05 03:16:40;;;;;;;11.88;4.25;;;;;;;22.90;53.34;99854.84;4500231;31;33776;-75
2022/08/05 03:19:07;;;;;;;10.70;3.95;;;;;;;22.49;54.52;99853.25;4487829;31;33999;-75
2022/08/05 03:21:56;;;;;;;7.53;4.55;;;;;;;22.29;55.11;99849.78;4492071;31;33883;-75
2022/08/05 03:24:25;;;;;;;9.57;4.60;;;;;;;22.02;56.18;99851.59;4498074;31;33791;-75
2022/08/05 03:26:58;;;;;;;8.70;4.55;;;;;;;21.55;57.24;99849.81;4486754;31;33991;-75
2022/08/05 03:29:26;;;;;;;7.68;3.92;;;;;;;21.63;56.57;99848.06;4485756;31;32827;-75
2022/08/05 03:32:14;;;;;;;8.18;4.60;;;;;;;21.83;55.90;99849.81;4495437;31;33987;-75
2022/08/05 03:34:42;;;;;;;8.90;4.60;;;;;;;21.82;55.88;99845.44;4499638;31;34008;-75
2022/08/05 03:37:19;;;;;;;12.80;4.45;;;;;;;21.50;57.07;99846.28;4484324;31;33809;-76
2022/08/05 03:39:55;;;;;;;6.15;3.97;;;;;;;21.80;55.94;99840.16;4494673;31;32684;-76
2022/08/05 03:42:28;;;;;;;8.02;3.92;;;;;;;21.98;55.26;99839.25;4489425;31;33691;-76
2022/08/05 03:44:59;;;;;;;7.72;4.40;;;;;;;22.19;53.78;99838.34;4500001;31;33316;-78
2022/08/05 03:47:47;;;;;;;10.10;4.20;;;;;;;22.01;54.15;99839.25;4491605;31;34204;-75
2022/08/05 03:50:15;;;;;;;7.18;3.80;;;;;;;22.11;54.07;99843.63;4501209;31;34345;-76
2022/08/05 03:52:52;;;;;;;9.98;4.32;;;;;;;22.11;54.37;99846.28;4501001;31;33368;-75
2022/08/05 03:55:45;;;;;;;7.25;4.20;;;;;;;22.23;54.02;99847.13;4493178;31;34017;-76
2022/08/05 03:58:34;;;;;;;7.57;4.70;;;;;;;22.27;53.84;99844.53;4495267;31;34576;-78
2022/08/05 04:01:06;;;;;;;9.43;4.18;;;;;;;21.96;54.75;99848.91;4498030;31;34337;-76
2022/08/05 04:03:36;;;;;;;9.50;4.25;;;;;;;21.69;55.56;99855.09;4487383;31;34714;-77
2022/08/05 04:06:05;;;;;;;8.23;4.37;;;;;;;21.74;55.13;99856.84;4486304;31;33873;-76
2022/08/05 04:08:36;;;;;;;9.05;4.45;;;;;;;21.80;54.89;99846.28;4492743;31;34557;-76
2022/08/05 04:11:06;;;;;;;9.52;4.43;;;;;;;21.63;55.57;99853.31;4493198;31;32868;-77
2022/08/05 04:13:38;;;;;;;8.07;4.25;;;;;;;22.05;54.79;99851.56;4501739;31;34600;-77
2022/08/05 04:16:18;;;;;;;7.70;4.32;;;;;;;22.11;55.17;99851.53;4501629;31;33752;-77
2022/08/05 04:18:52;;;;;;;10.90;4.05;;;;;;;22.16;55.31;99854.19;4476595;31;32193;-77
2022/08/05 04:21:24;;;;;;;10.65;4.03;;;;;;;21.78;56.11;99853.31;4499451;31;33964;-78
2022/08/05 04:24:11;;;;;;;6.87;4.00;;;;;;;22.24;54.30;99841.84;4501515;31;34664;-78
2022/08/05 04:26:49;;;;;;;6.12;3.65;;;;;;;22.07;55.49;99848.94;4487420;31;33778;-78
2022/08/05 04:29:16;;;;;;;6.78;4.00;;;;;;;22.46;53.78;99847.97;4499962;31;32527;-78
2022/08/05 04:31:44;;;;;;;7.97;4.03;;;;;;;22.62;54.24;99850.56;4494789;31;33372;-76
2022/08/05 04:34:14;;;;;;;9.20;4.82;;;;;;;22.70;54.28;99840.87;4500665;31;33258;-76
2022/08/05 04:36:59;;;;;;;;;;;;;;;22.90;53.84;99839.00;4498988;31;32630;-77
2022/08/05 04:39:30;;;;;;;8.10;4.60;;;;;;;23.01;53.98;99841.63;4501736;31;34095;-77
2022/08/05 04:41:58;;;;;;;8.75;4.00;;;;;;;23.02;53.62;99851.28;4489389;31;32935;-75
2022/08/05 04:44:26;;;;;;;6.93;3.95;;;;;;;23.01;53.34;99846.03;4500439;31;34352;-78
2022/08/05 04:46:57;;;;;;;7.18;4.20;;;;;;;23.12;52.29;99844.22;4500242;31;34107;-78
2022/08/05 04:49:26;;;;;;;10.57;4.28;;;;;;;23.47;51.45;99845.75;4496973;31;34554;-78
2022/08/05 04:52:14;;;;;;;6.78;4.10;;;;;;;23.32;51.24;99847.63;4500362;31;33266;-77
2022/08/05 04:54:42;;;;;;;6.85;3.70;;;;;;;23.70;50.21;99854.41;4500582;31;34642;-76
2022/08/05 04:57:09;;;;;;;7.00;3.97;;;;;;;23.60;50.29;99852.69;4498268;31;33952;-77
2022/08/05 04:59:37;;;;;;;9.88;4.55;;;;;;;23.70;50.14;99854.41;4496716;31;33802;-77
2022/08/05 05:02:07;;;;;;;8.80;4.70;;;;;;;23.77;49.64;99849.94;4499207;31;33787;-76
2022/08/05 05:04:55;;;;;;;8.57;4.20;;;;;;;23.68;49.82;99850.00;4495400;31;34168;-78
2022/08/05 05:07:30;;;;;;;8.55;4.25;;;;;;;23.91;49.73;99842.81;4500160;31;33764;-76
2022/08/05 05:10:04;;;;;;;6.05;3.70;;;;;;;24.29;49.05;99832.72;4493239;31;35050;-76
2022/08/05 05:12:33;;;;;;;8.32;4.30;;;;;;;24.21;49.16;99839.88;4499338;31;33314;-78
2022/08/05 05:15:04;;;;;;;7.57;4.20;;;;;;;24.42;48.65;99841.41;4491248;31;35388;-75
2022/08/05 05:17:38;;;;;;;7.95;4.30;;;;;;;24.50;48.19;99837.75;4491546;31;33884;-75
2022/08/05 05:20:23;;;;;;;7.40;3.90;;;;;;;24.78;47.30;99841.87;4494870;31;33784;-77
2022/08/05 05:22:57;;;;;;;7.25;4.00;;;;;;;24.82;46.95;99839.19;4498183;31;33183;-75
2022/08/05 05:25:25;;;;;;;7.82;4.22;;;;;;;24.95;46.68;99839.88;4500017;31;34462;-79
2022/08/05 05:28:08;;;;;;;8.60;4.45;;;;;;;24.77;46.89;99835.72;4500783;31;33922;-75
2022/08/05 05:30:37;;;;;;;10.13;4.28;;;;;;;24.97;45.97;99835.44;4498983;31;34168;-78
2022/08/05 05:33:06;;;;;;;11.18;4.82;;;;;;;25.09;45.72;99831.75;4498563;31;32534;-77
2022/08/05 05:35:45;;;;;;;9.40;4.37;;;;;;;25.36;45.16;99835.78;4492921;31;33703;-77
2022/08/05 05:38:15;;;;;;;6.35;4.03;;;;;;;25.49;45.11;99839.16;4493195;31;33246;-75
2022/08/05 05:40:57;;;;;;;7.87;3.95;;;;;;;25.67;44.61;99830.91;4494911;31;33919;-75
2022/08/05 05:43:24;;;;;;;7.90;3.80;;;;;;;25.43;44.92;99831.28;4497279;31;32465;-77
2022/08/05 05:46:12;;;;;;;8.20;3.72;;;;;;;25.76;43.87;99829.00;4492486;31;34046;-78
2022/08/05 05:48:46;;;;;;;7.72;3.53;;;;;;;26.14;42.96;99831.00;4499881;31;34019;-77
2022/08/05 05:51:22;;;;;;;7.37;3.87;;;;;;;25.97;42.79;99826.00;4496668;31;33696;-77
2022/08/05 05:53:50;;;;;;;;;;;;;;;26.27;42.15;99821.91;4496636;31;33455;-77
2022/08/05 05:56:27;;;;;;;7.35;3.42;;;;;;;26.25;40.86;99822.81;4497218;31;34743;-77
2022/08/05 05:59:01;;;;;;;;;;;;;;;26.32;41.15;99821.81;4492918;31;34575;-78
2022/08/05 06:01:34;;;;;;;9.65;3.55;;;;;;;26.35;40.83;99823.50;4491435;31;34149;-77
2022/08/05 06:04:06;;;;;;;7.07;3.25;;;;;;;26.62;40.52;99830.97;4495486;31;34284;-77
2022/08/05 06:06:41;;;;;;;10.20;3.62;;;;;;;26.71;40.74;99831.69;4489683;31;34257;-76
2022/08/05 06:09:10;;;;;;;8.45;3.40;;;;;;;26.85;40.81;99830.50;4490653;31;34419;-76
2022/08/05 06:11:51;;;;;;;6.40;3.25;;;;;;;26.74;39.35;99824.53;4496304;31;34590;-76
2022/08/05 06:14:30;;;;;;;6.53;3.12;;;;;;;26.92;39.35;99825.03;4494536;31;33990;-76
2022/08/05 06:16:57;;;;;;;6.40;3.47;;;;;;;26.58;39.74;99828.38;4493341;31;34492;-76
2022/08/05 06:19:26;;;;;;;8.77;3.33;;;;;;;27.37;38.46;99830.25;4497430;31;33783;-77
2022/08/05 06:22:03;;;;;;;5.28;3.37;;;;;;;27.43;38.54;99832.78;4492019;31;34009;-77
2022/08/05 06:24:33;;;;;;;4.50;3.08;;;;;;;27.33;38.38;99833.87;4494656;31;33545;-77
2022/08/05 06:27:02;;;;;;;5.47;3.25;;;;;;;27.32;38.74;99835.69;4495656;31;33782;-78
2022/08/05 06:29:30;;;;;;;5.65;3.50;;;;;;;27.83;37.54;99821.13;4496191;31;33968;-78
2022/08/05 06:32:18;;;;;;;8.38;3.17;;;;;;;27.69;37.33;99833.94;4494458;31;34557;-77
2022/08/05 06:34:53;;;;;;;6.05;3.03;;;;;;;27.62;37.72;99828.75;4496318;31;33440;-74
2022/08/05 06:37:25;;;;;;;9.13;3.17;;;;;;;28.31;36.38;99822.56;4489178;31;33713;-78
2022/08/05 06:40:12;;;;;;;7.18;3.30;;;;;;;28.01;37.39;99826.03;4496262;31;33987;-79
2022/08/05 06:42:49;;;;;;;4.65;3.22;;;;;;;28.16;36.65;99823.84;4479318;31;34016;-78
2022/08/05 06:45:22;;;;;;;6.97;2.87;;;;;;;28.31;35.55;99819.91;4499502;31;33437;-78
2022/08/05 06:48:09;;;;;;;7.12;3.00;;;;;;;28.62;34.62;99819.94;4492966;31;34051;-79
2022/08/05 06:50:57;;;;;;;6.85;3.12;;;;;;;28.48;34.82;99824.75;4497064;31;33704;-77
2022/08/05 06:53:26;;;;;;;5.18;2.97;;;;;;;28.65;34.40;99818.94;4496601;31;33993;-79
2022/08/05 06:55:57;;;;;;;9.88;3.22;;;;;;;28.99;33.72;99827.72;4491634;31;33006;-77
2022/08/05 06:58:26;;;;;;;7.40;2.97;;;;;;;29.35;33.17;99824.81;4488959;31;33494;-76
2022/08/05 07:01:05;;;;;;;5.95;2.60;;;;;;;30.27;31.35;99820.88;4494768;31;34190;-77
2022/08/05 07:03:33;;;;;;;8.95;2.87;;;;;;;30.83;30.63;99824.16;4491665;31;32879;-78
2022/08/05 07:06:03;;;;;;;9.80;2.87;;;;;;;31.35;29.64;99822.12;4493835;31;34343;-78
2022/08/05 07:08:42;;;;;;;7.85;2.55;;;;;;;31.81;28.65;99817.56;4495133;31;32583;-76
2022/08/05 07:11:18;;;;;;;6.75;2.58;;;;;;;32.49;27.77;99825.34;4491418;31;33413;-77
2022/08/05 07:16:59;;;;;;;6.07;2.90;;;;;;;34.47;24.76;99825.53;4499440;31;34693;-75
2022/08/05 07:19:49;;;;;;;5.25;2.47;;;;;;;35.61;23.35;99828.13;4498656;31;33900;-76
2022/08/05 07:22:36;;;;;;;10.38;2.65;;;;;;;36.02;22.35;99818.56;4499067;31;33991;-76
2022/08/05 07:25:05;;;;;;;5.65;2.28;;;;;;;36.73;21.42;99817.81;4499602;31;34383;-76
2022/08/05 07:27:53;;;;;;;4.90;2.42;;;;;;;37.26;20.34;99818.00;4498967;31;33310;-75
2022/08/05 07:30:26;;;;;;;8.35;2.47;;;;;;;36.00;20.99;99815.09;4501741;31;33698;-76
2022/08/05 07:33:03;;;;;;;5.72;2.45;;;;;;;36.68;20.77;99819.06;4500650;31;33947;-75
2022/08/05 07:35:32;;;;;;;5.80;2.42;;;;;;;36.88;20.15;99807.00;4496187;31;33246;-76
2022/08/05 07:38:19;;;;;;;8.80;2.62;;;;;;;36.80;20.01;99812.91;4491806;31;33144;-76
2022/08/05 07:41:09;;;;;;;5.10;2.33;;;;;;;37.92;19.20;99810.00;4498430;31;34761;-75
2022/08/05 07:43:57;;;;;;;5.22;2.20;;;;;;;38.58;18.53;99807.28;4487443;31;32265;-76
2022/08/05 07:46:26;;;;;;;9.05;2.30;;;;;;;38.93;17.93;99802.87;4499079;31;35283;-76
2022/08/05 07:48:56;;;;;;;7.43;2.33;;;;;;;37.20;19.54;99799.50;4494690;31;32994;-77
2022/08/05 07:51:35;;;;;;;7.30;2.20;;;;;;;37.37;19.90;99804.66;4497715;31;33181;-76
2022/08/05 07:54:25;;;;;;;5.47;2.30;;;;;;;39.31;18.34;99799.19;4493676;31;34591;-75
2022/08/05 07:57:01;;;;;;;5.05;2.17;;;;;;;40.87;16.90;99798.81;4495559;31;33692;-75
2022/08/05 07:59:48;;;;;;;4.15;2.15;;;;;;;40.57;16.20;99794.03;4498533;31;33395;-75
2022/08/05 08:02:16;;;;;;;5.90;2.50;;;;;;;41.12;16.02;99796.81;4498948;31;33552;-75
2022/08/05 08:04:45;;;;;;;8.98;2.35;;;;;;;41.88;15.53;99804.09;4495323;31;34743;-76
2022/08/05 08:07:14;;;;;;;5.75;2.20;;;;;;;39.01;17.54;99804.19;4496519;31;34797;-75
2022/08/05 08:09:42;;;;;;;6.82;1.92;;;;;;;37.49;19.29;99802.09;4494648;31;33723;-75
2022/08/05 08:12:12;;;;;;;5.55;2.42;;;;;;;39.60;18.26;99809.72;4499740;31;34020;-75
2022/08/05 08:15:00;;;;;;;11.55;2.65;;;;;;;39.60;17.17;99801.56;4490266;31;33775;-76
2022/08/05 08:17:31;;;;;;;5.72;2.22;;;;;;;39.99;16.91;99791.38;4495825;31;34439;-75
2022/08/05 08:19:58;;;;;;;7.05;2.30;;;;;;;40.83;17.04;99791.91;4496621;31;33428;-76
2022/08/05 08:22:50;;;;;;;5.47;2.22;;;;;;;39.39;17.46;99797.72;4500067;31;34622;-75
2022/08/05 08:25:18;;;;;;;5.65;2.42;;;;;;;38.22;18.42;99795.37;4499440;31;33939;-76
2022/08/05 08:28:06;;;;;;;3.83;2.22;;;;;;;38.24;18.28;99798.84;4500086;31;33942;-75
2022/08/05 08:30:45;;;;;;;6.80;2.17;;;;;;;37.36;19.40;99797.53;4497918;31;33218;-76
2022/08/05 08:33:16;;;;;;;7.70;2.42;;;;;;;38.39;18.40;99792.34;4496561;31;34572;-75
2022/08/05 08:35:46;;;;;;;4.25;2.37;;;;;;;40.10;17.08;99794.09;4501201;31;34690;-75
2022/08/05 08:38:30;;;;;;;5.20;2.25;;;;;;;40.80;16.52;99792.19;4498932;31;33832;-75
2022/08/05 08:41:09;;;;;;;5.65;2.10;;;;;;;40.66;16.40;99790.56;4499867;31;34135;-75
2022/08/05 08:43:41;;;;;;;3.80;2.50;;;;;;;37.69;18.88;99782.75;4491674;31;33513;-75
2022/08/05 08:46:30;;;;;;;5.20;2.53;;;;;;;37.75;18.72;99787.72;4499410;31;33646;-75
2022/08/05 08:48:59;;;;;;;3.75;2.40;;;;;;;36.96;19.63;99792.03;4490396;31;33919;-75
2022/08/05 08:51:48;;;;;;;11.02;2.40;;;;;;;37.93;18.95;99790.13;4483987;31;32159;-75
2022/08/05 08:54:33;;;;;;;4.53;2.30;;;;;;;39.40;17.89;99788.63;4497251;31;34494;-75
2022/08/05 08:57:05;;;;;;;7.03;2.30;;;;;;;39.90;16.89;99784.78;4487152;31;34464;-75
2022/08/05 08:59:38;;;;;;;5.68;2.10;;;;;;;39.72;17.47;99787.06;4494517;31;34041;-75
2022/08/05 09:02:14;;;;;;;5.68;2.45;;;;;;;40.19;17.20;99789.78;4489286;31;34236;-76
2022/08/05 09:04:50;;;;;;;4.00;2.28;;;;;;;39.92;17.19;99776.53;4486455;31;33848;-75
2022/08/05 09:07:38;;;;;;;7.00;2.58;;;;;;;38.21;18.80;99780.09;4489751;31;33753;-74
2022/08/05 09:10:25;;;;;;;5.25;2.58;;;;;;;39.05;18.19;99778.59;4490514;31;33711;-76
2022/08/05 09:12:56;;;;;;;6.87;2.00;;;;;;;38.90;18.29;99780.56;4490722;31;34059;-75
2022/08/05 09:15:32;;;;;;;5.10;2.45;;;;;;;39.75;17.45;99776.97;4495359;31;33522;-74
2022/08/05 09:18:08;;;;;;;7.78;2.90;;;;;;;37.66;19.10;99777.53;4487783;31;33473;-75
2022/08/05 09:20:43;;;;;;;6.50;2.28;;;;;;;38.53;18.68;99770.56;4490734;31;34537;-74
2022/08/05 09:23:12;;;;;;;6.75;2.33;;;;;;;38.82;18.44;99773.00;4487228;31;33915;-76
2022/08/05 09:25:50;;;;;;;4.03;2.30;;;;;;;37.16;19.95;99762.88;4497347;31;33895;-75
2022/08/05 09:28:31;;;;;;;6.62;2.40;;;;;;;36.44;20.51;99760.28;4496729;31;33732;-75
2022/08/05 09:31:05;;;;;;;6.18;2.60;;;;;;;36.42;20.81;99762.22;4492324;31;33115;-74
2022/08/05 09:33:54;;;;;;;5.05;2.47;;;;;;;37.16;19.69;99762.88;4494819;31;32985;-74
2022/08/05 09:36:23;;;;;;;5.25;2.67;;;;;;;37.73;19.80;99757.25;4496169;31;33007;-75
2022/08/05 09:39:00;;;;;;;6.87;2.53;;;;;;;37.74;18.76;99753.53;4498901;31;34541;-75
2022/08/05 09:41:28;;;;;;;7.70;2.45;;;;;;;38.53;18.85;99751.63;4498354;31;34099;-75
2022/08/05 09:44:04;;;;;;;7.82;2.50;;;;;;;37.96;18.38;99746.66;4490730;31;34189;-76
2022/08/05 09:46:33;;;;;;;4.78;2.40;;;;;;;38.50;18.58;99746.44;4489324;31;33541;-74
2022/08/05 09:49:05;;;;;;;6.97;2.65;;;;;;;39.29;17.45;99738.84;4490903;31;34836;-76
2022/08/05 09:51:47;;;;;;;7.20;2.50;;;;;;;38.71;18.49;99743.16;4489253;31;33839;-75
2022/08/05 09:54:16;;;;;;;7.00;2.50;;;;;;;37.21;19.29;99744.53;4484335;31;32883;-75
2022/08/05 09:56:56;;;;;;;9.35;2.40;;;;;;;37.56;19.00;99735.88;4494376;31;33038;-75
2022/08/05 09:59:28;;;;;;;8.10;2.28;;;;;;;37.52;18.91;99732.53;4474624;31;34794;-76
2022/08/05 10:02:04;;;;;;;4.90;2.33;;;;;;;37.86;18.85;99729.34;4492473;31;33777;-75
2022/08/05 10:04:36;;;;;;;8.18;2.67;;;;;;;38.19;18.55;99725.25;4489494;31;33426;-75
2022/08/05 10:07:07;;;;;;;6.87;2.60;;;;;;;38.58;18.37;99731.47;4486238;31;33630;-75
2022/08/05 10:09:55;;;;;;;6.45;2.80;;;;;;;37.35;19.04;99725.56;4491982;31;35238;-75
2022/08/05 10:12:44;;;;;;;7.30;2.95;;;;;;;37.54;18.94;99725.16;4487935;31;34723;-75
2022/08/05 10:15:24;;;;;;;5.12;2.78;;;;;;;36.94;19.47;99726.47;4495459;31;33298;-76
2022/08/05 10:18:12;;;;;;;3.90;2.37;;;;;;;38.11;18.16;99718.56;4489693;31;33692;-77
2022/08/05 10:20:44;;;;;;;4.93;2.50;;;;;;;38.20;18.14;99716.19;4487473;31;33745;-76
2022/08/05 10:23:24;;;;;;;3.58;2.22;;;;;;;38.63;18.06;99708.53;4494609;31;33851;-75
2022/08/05 10:26:12;;;;;;;5.35;2.53;;;;;;;38.13;18.38;99708.50;4492525;31;33439;-75
2022/08/05 10:28:42;;;;;;;5.78;2.85;;;;;;;38.14;18.19;99695.84;4495361;31;33721;-75
2022/08/05 10:31:15;;;;;;;4.28;2.20;;;;;;;38.39;18.90;99700.34;4498883;31;32659;-76
2022/08/05 10:34:02;;;;;;;6.28;2.53;;;;;;;37.52;18.69;99702.78;4495717;31;34373;-76
2022/08/05 10:36:37;;;;;;;5.87;2.33;;;;;;;38.49;17.90;99693.28;4499138;31;33549;-76
2022/08/05 10:39:21;;;;;;;5.93;2.75;;;;;;;38.49;18.08;99700.53;4486419;31;33592;-75
2022/08/05 10:42:15;;;;;;;4.50;2.47;;;;;;;39.32;17.96;99692.53;4491174;31;34678;-76
2022/08/05 10:44:45;;;;;;;4.15;2.40;;;;;;;38.68;17.63;99695.53;4478378;31;33707;-76
2022/08/05 10:47:15;;;;;;;5.25;2.60;;;;;;;38.97;17.71;99697.03;4486145;31;32059;-75
2022/08/05 10:50:01;;;;;;;4.85;2.50;;;;;;;39.43;17.97;99693.56;4493701;31;33783;-77
2022/08/05 10:52:55;;;;;;;5.20;2.37;;;;;;;40.20;16.31;99690.25;4492272;31;33971;-76
2022/08/05 10:55:25;;;;;;;4.78;2.53;;;;;;;39.97;16.96;99679.41;4495967;31;33920;-75
2022/08/05 10:58:10;;;;;;;4.32;2.70;;;;;;;39.74;16.95;99678.50;4495968;31;33292;-75
2022/08/05 11:00:45;;;;;;;6.00;2.75;;;;;;;38.54;17.33;99679.44;4496624;31;33873;-75
2022/08/05 11:03:13;;;;;;;5.68;2.60;;;;;;;39.75;17.03;99669.38;4495442;31;33989;-76
2022/08/05 11:06:03;;;;;;;3.90;2.45;;;;;;;40.39;16.12;99668.81;4496345;31;33802;-77
2022/08/05 11:08:31;;;;;;;5.20;2.85;;;;;;;39.88;16.46;99669.28;4496151;31;33078;-76
2022/08/05 11:11:36;;;;;;;6.65;2.50;;;;;;;38.52;17.32;99676.81;4492849;31;33299;-73
2022/08/05 11:14:12;;;;;;;5.37;2.50;;;;;;;38.06;17.37;99676.56;4496860;31;34787;-74
2022/08/05 11:16:40;;;;;;;4.03;2.40;;;;;;;39.19;16.61;99667.34;4499952;31;34560;-76
2022/08/05 11:19:29;;;;;;;6.12;2.60;;;;;;;38.71;16.53;99668.25;4494190;31;33416;-75
2022/08/05 11:22:43;;;;;;;5.00;2.42;;;;;;;39.91;16.99;99663.63;4493644;31;34553;-75
2022/08/05 11:25:42;;;;;;;4.00;2.80;;;;;;;39.66;16.38;99660.13;4493277;31;33967;-75
2022/08/05 11:28:33;;;;;;;4.50;2.60;;;;;;;40.22;15.62;99661.12;4490992;31;33723;-75
2022/08/05 11:31:02;;;;;;;5.07;2.67;;;;;;;40.76;15.18;99665.81;4492992;31;34002;-75
2022/08/05 11:33:35;;;;;;;5.90;2.40;;;;;;;40.67;15.13;99656.53;4497644;31;33019;-75
2022/08/05 11:36:17;;;;;;;5.93;2.42;;;;;;;40.41;15.54;99650.56;4501305;31;33745;-75
2022/08/05 11:39:05;;;;;;;3.92;2.50;;;;;;;40.63;15.10;99649.63;4494611;31;34286;-75
2022/08/05 11:41:34;;;;;;;3.85;2.33;;;;;;;39.95;15.63;99653.38;4493740;31;33730;-78
2022/08/05 11:44:25;;;;;;;4.68;2.65;;;;;;;40.19;15.97;99656.81;4497997;31;33709;-76
2022/08/05 11:47:13;;;;;;;7.32;2.55;;;;;;;40.03;15.42;99650.94;4492115;31;33959;-76
2022/08/05 11:49:55;;;;;;;3.50;2.45;;;;;;;40.06;15.77;99653.38;4492133;31;33863;-76
2022/08/05 11:52:25;;;;;;;3.80;2.40;;;;;;;39.53;16.20;99653.94;4496355;31;32289;-77
2022/08/05 11:54:57;;;;;;;5.50;2.28;;;;;;;39.09;16.21;99655.50;4498657;31;34597;-74
2022/08/05 11:57:33;;;;;;;4.53;2.45;;;;;;;39.68;15.95;99658.16;4498853;31;34848;-76
2022/08/05 12:00:26;;;;;;;5.22;2.60;;;;;;;40.02;15.64;99660.03;4498856;31;34021;-75
2022/08/05 12:02:55;;;;;;;3.55;2.37;;;;;;;40.65;15.90;99652.22;4497455;31;33430;-75
2022/08/05 12:05:28;;;;;;;4.50;2.87;;;;;;;40.40;15.38;99658.81;4492162;31;33699;-75
2022/08/05 12:08:06;;;;;;;3.67;2.53;;;;;;;40.54;15.43;99654.97;4499856;31;34859;-76
2022/08/05 12:10:44;;;;;;;5.57;2.83;;;;;;;41.01;14.79;99655.56;4487856;31;34477;-77
2022/08/05 12:13:16;;;;;;;3.53;2.55;;;;;;;41.12;15.05;99655.50;4497429;31;33853;-75
2022/08/05 12:16:05;;;;;;;4.10;2.50;;;;;;;40.99;14.61;99643.97;4495247;31;33914;-74
2022/08/05 12:18:43;;;;;;;6.47;2.53;;;;;;;40.71;15.25;99643.56;4486391;31;34848;-76
2022/08/05 12:21:31;;;;;;;6.25;2.58;;;;;;;40.79;14.79;99641.09;4497443;31;34389;-76
2022/08/05 12:24:07;;;;;;;4.28;2.50;;;;;;;40.92;15.20;99640.06;4495825;31;33231;-75